METAR Data
IDs: Format: Raw Decoded Include TAF

Data at: 0933 UTC 20 Sep 2019

METAR for:KCOS (Colorado Spring Muni, CO, US)
Text:KCOS 200854Z 07007KT 10SM FEW025 FEW120 SCT210 14/10 A3001 RMK AO2 SLP071 T01390100 58003
Temperature: 13.9°C ( 57°F)
Dewpoint: 10.0°C ( 50°F) [RH = 77%]
Pressure (altimeter):30.01 inches Hg (1016.3 mb) [Sea level pressure: 1007.1 mb]
Winds:from the ENE (70 degrees) at 8 MPH (7 knots; 3.6 m/s)
Visibility:10 or more sm (16+ km)
Ceiling:at least 12,000 feet AGL
Clouds: few clouds at 2500 feet AGL, few clouds at 12000 feet AGL, scattered clouds at 21000 feet AGL